sensor_id;sensor_type;location;lat;lon;timestamp;P1;durP1;ratioP1;P2;durP2;ratioP2
20476;SDS011;10397;50.948;11.092;2024-03-02T00:01:42;3.17;;;1.70;;
20476;SDS011;10397;50.948;11.092;2024-03-02T00:04:13;2.53;;;1.03;;
20476;SDS011;10397;50.948;11.092;2024-03-02T00:06:44;3.43;;;1.60;;
20476;SDS011;10397;50.948;11.092;2024-03-02T00:09:15;2.07;;;1.63;;
20476;SDS011;10397;50.948;11.092;2024-03-02T00:11:45;2.43;;;1.13;;
20476;SDS011;10397;50.948;11.092;2024-03-02T00:14:16;2.03;;;1.80;;
20476;SDS011;10397;50.948;11.092;2024-03-02T00:16:47;2.83;;;2.23;;
20476;SDS011;10397;50.948;11.092;2024-03-02T00:19:18;1.93;;;1.03;;
20476;SDS011;10397;50.948;11.092;2024-03-02T00:21:50;2.73;;;1.80;;
20476;SDS011;10397;50.948;11.092;2024-03-02T00:24:21;2.90;;;2.30;;
20476;SDS011;10397;50.948;11.092;2024-03-02T00:26:52;2.90;;;2.27;;
20476;SDS011;10397;50.948;11.092;2024-03-02T00:29:23;1.90;;;1.27;;
20476;SDS011;10397;50.948;11.092;2024-03-02T00:31:54;1.93;;;1.10;;
20476;SDS011;10397;50.948;11.092;2024-03-02T00:34:25;2.53;;;1.67;;
20476;SDS011;10397;50.948;11.092;2024-03-02T00:36:59;2.10;;;0.93;;
20476;SDS011;10397;50.948;11.092;2024-03-02T00:39:29;3.07;;;1.13;;
20476;SDS011;10397;50.948;11.092;2024-03-02T00:42:00;3.90;;;1.70;;
20476;SDS011;10397;50.948;11.092;2024-03-02T00:44:31;2.73;;;1.53;;
20476;SDS011;10397;50.948;11.092;2024-03-02T00:47:01;3.97;;;1.27;;
20476;SDS011;10397;50.948;11.092;2024-03-02T00:49:32;3.57;;;1.67;;
20476;SDS011;10397;50.948;11.092;2024-03-02T00:52:03;2.00;;;1.30;;
20476;SDS011;10397;50.948;11.092;2024-03-02T00:54:33;3.00;;;1.67;;
20476;SDS011;10397;50.948;11.092;2024-03-02T00:57:04;3.60;;;1.90;;
20476;SDS011;10397;50.948;11.092;2024-03-02T00:59:35;2.80;;;1.00;;
20476;SDS011;10397;50.948;11.092;2024-03-02T01:02:06;2.87;;;1.53;;
20476;SDS011;10397;50.948;11.092;2024-03-02T01:04:37;3.77;;;1.40;;
20476;SDS011;10397;50.948;11.092;2024-03-02T01:07:09;3.13;;;1.03;;
20476;SDS011;10397;50.948;11.092;2024-03-02T01:09:40;2.97;;;2.03;;
20476;SDS011;10397;50.948;11.092;2024-03-02T01:12:11;1.83;;;1.00;;
20476;SDS011;10397;50.948;11.092;2024-03-02T01:14:42;1.27;;;0.97;;
20476;SDS011;10397;50.948;11.092;2024-03-02T01:17:13;1.67;;;0.80;;
20476;SDS011;10397;50.948;11.092;2024-03-02T01:19:45;1.53;;;0.80;;
20476;SDS011;10397;50.948;11.092;2024-03-02T01:22:16;3.17;;;0.73;;
20476;SDS011;10397;50.948;11.092;2024-03-02T01:24:47;1.87;;;1.23;;
20476;SDS011;10397;50.948;11.092;2024-03-02T01:27:18;1.40;;;0.90;;
20476;SDS011;10397;50.948;11.092;2024-03-02T01:29:49;2.50;;;0.93;;
20476;SDS011;10397;50.948;11.092;2024-03-02T01:32:20;0.70;;;0.53;;
20476;SDS011;10397;50.948;11.092;2024-03-02T01:34:52;1.07;;;0.73;;
20476;SDS011;10397;50.948;11.092;2024-03-02T01:37:23;2.63;;;1.87;;
20476;SDS011;10397;50.948;11.092;2024-03-02T01:39:54;2.00;;;1.50;;
20476;SDS011;10397;50.948;11.092;2024-03-02T01:42:25;3.77;;;1.87;;
20476;SDS011;10397;50.948;11.092;2024-03-02T01:44:56;1.87;;;1.57;;
20476;SDS011;10397;50.948;11.092;2024-03-02T01:47:27;2.10;;;1.10;;
20476;SDS011;10397;50.948;11.092;2024-03-02T01:49:59;5.17;;;1.23;;
20476;SDS011;10397;50.948;11.092;2024-03-02T01:52:29;3.37;;;1.53;;
20476;SDS011;10397;50.948;11.092;2024-03-02T01:55:00;2.17;;;0.60;;
20476;SDS011;10397;50.948;11.092;2024-03-02T01:57:31;3.27;;;1.90;;
20476;SDS011;10397;50.948;11.092;2024-03-02T02:00:01;1.83;;;1.27;;
20476;SDS011;10397;50.948;11.092;2024-03-02T02:02:32;3.43;;;2.07;;
20476;SDS011;10397;50.948;11.092;2024-03-02T02:05:03;3.83;;;2.10;;
20476;SDS011;10397;50.948;11.092;2024-03-02T02:07:34;1.30;;;1.03;;
20476;SDS011;10397;50.948;11.092;2024-03-02T02:10:04;2.50;;;1.00;;
20476;SDS011;10397;50.948;11.092;2024-03-02T02:12:35;2.23;;;0.93;;
20476;SDS011;10397;50.948;11.092;2024-03-02T02:15:28;0.90;;;0.53;;
20476;SDS011;10397;50.948;11.092;2024-03-02T02:17:55;1.57;;;0.83;;
20476;SDS011;10397;50.948;11.092;2024-03-02T02:20:25;1.43;;;0.80;;
20476;SDS011;10397;50.948;11.092;2024-03-02T02:22:59;3.33;;;1.37;;
20476;SDS011;10397;50.948;11.092;2024-03-02T02:25:29;1.73;;;1.27;;
20476;SDS011;10397;50.948;11.092;2024-03-02T02:28:00;1.47;;;0.80;;
20476;SDS011;10397;50.948;11.092;2024-03-02T02:30:31;4.12;;;1.22;;
20476;SDS011;10397;50.948;11.092;2024-03-02T02:33:02;2.63;;;0.70;;
20476;SDS011;10397;50.948;11.092;2024-03-02T02:35:33;5.35;;;1.75;;
20476;SDS011;10397;50.948;11.092;2024-03-02T02:38:04;2.95;;;1.40;;
20476;SDS011;10397;50.948;11.092;2024-03-02T02:40:35;2.62;;;1.35;;
20476;SDS011;10397;50.948;11.092;2024-03-02T02:43:06;1.60;;;1.00;;
20476;SDS011;10397;50.948;11.092;2024-03-02T02:45:38;3.03;;;1.20;;
20476;SDS011;10397;50.948;11.092;2024-03-02T02:48:09;2.23;;;1.03;;
20476;SDS011;10397;50.948;11.092;2024-03-02T02:50:41;8.23;;;1.67;;
20476;SDS011;10397;50.948;11.092;2024-03-02T02:53:11;1.65;;;1.05;;
20476;SDS011;10397;50.948;11.092;2024-03-02T02:55:42;1.37;;;0.85;;
20476;SDS011;10397;50.948;11.092;2024-03-02T02:58:14;4.60;;;1.63;;
20476;SDS011;10397;50.948;11.092;2024-03-02T03:00:45;1.82;;;1.22;;
20476;SDS011;10397;50.948;11.092;2024-03-02T03:03:16;3.45;;;1.60;;
20476;SDS011;10397;50.948;11.092;2024-03-02T03:05:48;3.00;;;1.57;;
20476;SDS011;10397;50.948;11.092;2024-03-02T03:08:20;3.75;;;1.95;;
20476;SDS011;10397;50.948;11.092;2024-03-02T03:10:51;1.42;;;1.05;;
20476;SDS011;10397;50.948;11.092;2024-03-02T03:13:23;1.77;;;1.37;;
20476;SDS011;10397;50.948;11.092;2024-03-02T03:15:54;1.77;;;1.17;;
20476;SDS011;10397;50.948;11.092;2024-03-02T03:18:25;2.27;;;1.43;;
20476;SDS011;10397;50.948;11.092;2024-03-02T03:20:57;1.80;;;1.12;;
20476;SDS011;10397;50.948;11.092;2024-03-02T03:23:28;2.12;;;1.25;;
20476;SDS011;10397;50.948;11.092;2024-03-02T03:26:00;1.30;;;0.87;;
20476;SDS011;10397;50.948;11.092;2024-03-02T03:28:31;2.50;;;1.37;;
20476;SDS011;10397;50.948;11.092;2024-03-02T03:31:02;0.83;;;0.77;;
20476;SDS011;10397;50.948;11.092;2024-03-02T03:33:33;2.35;;;1.57;;
20476;SDS011;10397;50.948;11.092;2024-03-02T03:36:05;4.20;;;1.17;;
20476;SDS011;10397;50.948;11.092;2024-03-02T03:38:35;2.27;;;0.80;;
20476;SDS011;10397;50.948;11.092;2024-03-02T03:41:06;4.17;;;2.17;;
20476;SDS011;10397;50.948;11.092;2024-03-02T03:43:37;1.80;;;1.13;;
20476;SDS011;10397;50.948;11.092;2024-03-02T03:46:09;2.47;;;1.27;;
20476;SDS011;10397;50.948;11.092;2024-03-02T03:48:40;4.87;;;3.00;;
20476;SDS011;10397;50.948;11.092;2024-03-02T03:51:11;2.25;;;1.52;;
20476;SDS011;10397;50.948;11.092;2024-03-02T03:53:43;2.27;;;1.40;;
20476;SDS011;10397;50.948;11.092;2024-03-02T03:56:15;5.80;;;2.85;;
20476;SDS011;10397;50.948;11.092;2024-03-02T03:58:47;5.42;;;2.27;;
20476;SDS011;10397;50.948;11.092;2024-03-02T04:01:18;3.17;;;1.65;;
20476;SDS011;10397;50.948;11.092;2024-03-02T04:03:49;2.60;;;1.60;;
20476;SDS011;10397;50.948;11.092;2024-03-02T04:06:21;2.00;;;1.15;;
20476;SDS011;10397;50.948;11.092;2024-03-02T04:08:53;3.12;;;2.02;;
20476;SDS011;10397;50.948;11.092;2024-03-02T04:11:24;2.72;;;1.67;;
20476;SDS011;10397;50.948;11.092;2024-03-02T04:13:56;2.95;;;1.75;;
20476;SDS011;10397;50.948;11.092;2024-03-02T04:16:28;3.67;;;2.45;;
20476;SDS011;10397;50.948;11.092;2024-03-02T04:19:00;4.30;;;1.87;;
20476;SDS011;10397;50.948;11.092;2024-03-02T04:21:31;2.90;;;2.22;;
20476;SDS011;10397;50.948;11.092;2024-03-02T04:24:03;5.55;;;1.95;;
20476;SDS011;10397;50.948;11.092;2024-03-02T04:26:34;2.08;;;1.77;;
20476;SDS011;10397;50.948;11.092;2024-03-02T04:29:05;4.20;;;2.00;;
20476;SDS011;10397;50.948;11.092;2024-03-02T04:31:37;2.90;;;1.47;;
20476;SDS011;10397;50.948;11.092;2024-03-02T04:34:08;8.23;;;2.15;;
20476;SDS011;10397;50.948;11.092;2024-03-02T04:36:40;5.95;;;2.05;;
20476;SDS011;10397;50.948;11.092;2024-03-02T04:39:11;2.67;;;1.67;;
20476;SDS011;10397;50.948;11.092;2024-03-02T04:41:43;4.58;;;2.35;;
20476;SDS011;10397;50.948;11.092;2024-03-02T04:44:14;5.20;;;2.83;;
20476;SDS011;10397;50.948;11.092;2024-03-02T04:46:45;5.10;;;3.23;;
20476;SDS011;10397;50.948;11.092;2024-03-02T04:49:17;6.30;;;2.47;;
20476;SDS011;10397;50.948;11.092;2024-03-02T04:51:48;9.13;;;2.37;;
20476;SDS011;10397;50.948;11.092;2024-03-02T04:54:19;2.10;;;1.60;;
20476;SDS011;10397;50.948;11.092;2024-03-02T04:56:51;4.35;;;2.40;;
20476;SDS011;10397;50.948;11.092;2024-03-02T04:59:22;5.33;;;2.45;;
20476;SDS011;10397;50.948;11.092;2024-03-02T05:01:54;7.42;;;4.17;;
20476;SDS011;10397;50.948;11.092;2024-03-02T05:04:26;4.03;;;2.17;;
20476;SDS011;10397;50.948;11.092;2024-03-02T05:06:57;4.97;;;2.67;;
20476;SDS011;10397;50.948;11.092;2024-03-02T05:09:29;5.35;;;2.65;;
20476;SDS011;10397;50.948;11.092;2024-03-02T05:12:00;3.35;;;2.05;;
20476;SDS011;10397;50.948;11.092;2024-03-02T05:14:37;3.17;;;2.27;;
20476;SDS011;10397;50.948;11.092;2024-03-02T05:17:08;8.67;;;2.13;;
20476;SDS011;10397;50.948;11.092;2024-03-02T05:19:39;6.20;;;3.57;;
20476;SDS011;10397;50.948;11.092;2024-03-02T05:22:11;1.93;;;1.27;;
20476;SDS011;10397;50.948;11.092;2024-03-02T05:24:42;3.83;;;2.07;;
20476;SDS011;10397;50.948;11.092;2024-03-02T05:27:13;3.17;;;2.23;;
20476;SDS011;10397;50.948;11.092;2024-03-02T05:29:44;3.07;;;1.70;;
20476;SDS011;10397;50.948;11.092;2024-03-02T05:32:16;3.20;;;1.87;;
20476;SDS011;10397;50.948;11.092;2024-03-02T05:34:47;3.23;;;1.87;;
20476;SDS011;10397;50.948;11.092;2024-03-02T05:37:18;2.83;;;1.77;;
20476;SDS011;10397;50.948;11.092;2024-03-02T05:39:50;4.55;;;3.35;;
20476;SDS011;10397;50.948;11.092;2024-03-02T05:42:21;3.30;;;1.52;;
20476;SDS011;10397;50.948;11.092;2024-03-02T05:44:53;4.90;;;1.65;;
20476;SDS011;10397;50.948;11.092;2024-03-02T05:47:24;1.95;;;1.40;;
20476;SDS011;10397;50.948;11.092;2024-03-02T05:49:56;1.72;;;1.10;;
20476;SDS011;10397;50.948;11.092;2024-03-02T05:52:27;1.50;;;0.80;;
20476;SDS011;10397;50.948;11.092;2024-03-02T05:54:59;1.80;;;0.97;;
20476;SDS011;10397;50.948;11.092;2024-03-02T05:57:30;1.33;;;0.60;;
20476;SDS011;10397;50.948;11.092;2024-03-02T06:00:07;1.97;;;1.23;;
20476;SDS011;10397;50.948;11.092;2024-03-02T06:02:40;1.07;;;0.65;;
20476;SDS011;10397;50.948;11.092;2024-03-02T06:05:12;2.60;;;1.10;;
20476;SDS011;10397;50.948;11.092;2024-03-02T06:07:43;1.92;;;1.05;;
20476;SDS011;10397;50.948;11.092;2024-03-02T06:10:14;1.90;;;0.70;;
20476;SDS011;10397;50.948;11.092;2024-03-02T06:12:45;1.35;;;0.95;;
20476;SDS011;10397;50.948;11.092;2024-03-02T06:15:17;1.05;;;0.45;;
20476;SDS011;10397;50.948;11.092;2024-03-02T06:17:48;1.55;;;1.45;;
20476;SDS011;10397;50.948;11.092;2024-03-02T06:20:19;2.63;;;0.80;;
20476;SDS011;10397;50.948;11.092;2024-03-02T06:22:51;2.87;;;0.73;;
20476;SDS011;10397;50.948;11.092;2024-03-02T06:25:22;2.03;;;1.13;;
20476;SDS011;10397;50.948;11.092;2024-03-02T06:27:53;1.53;;;0.70;;
20476;SDS011;10397;50.948;11.092;2024-03-02T06:30:24;1.93;;;1.03;;
20476;SDS011;10397;50.948;11.092;2024-03-02T06:32:55;3.08;;;1.95;;
20476;SDS011;10397;50.948;11.092;2024-03-02T06:35:26;1.25;;;0.80;;
20476;SDS011;10397;50.948;11.092;2024-03-02T06:37:58;1.45;;;0.88;;
20476;SDS011;10397;50.948;11.092;2024-03-02T06:40:30;1.25;;;1.15;;
20476;SDS011;10397;50.948;11.092;2024-03-02T06:43:01;1.05;;;0.85;;
20476;SDS011;10397;50.948;11.092;2024-03-02T06:45:32;1.40;;;1.27;;
20476;SDS011;10397;50.948;11.092;2024-03-02T06:48:03;1.17;;;0.77;;
20476;SDS011;10397;50.948;11.092;2024-03-02T06:50:34;1.25;;;1.00;;
20476;SDS011;10397;50.948;11.092;2024-03-02T06:53:05;1.90;;;0.93;;
20476;SDS011;10397;50.948;11.092;2024-03-02T06:55:37;1.85;;;0.62;;
20476;SDS011;10397;50.948;11.092;2024-03-02T06:58:09;1.30;;;0.88;;
20476;SDS011;10397;50.948;11.092;2024-03-02T07:00:41;1.42;;;0.80;;
20476;SDS011;10397;50.948;11.092;2024-03-02T07:03:11;2.90;;;0.73;;
20476;SDS011;10397;50.948;11.092;2024-03-02T07:05:42;4.62;;;0.93;;
20476;SDS011;10397;50.948;11.092;2024-03-02T07:08:13;0.83;;;0.83;;
20476;SDS011;10397;50.948;11.092;2024-03-02T07:10:44;1.12;;;0.85;;
20476;SDS011;10397;50.948;11.092;2024-03-02T07:13:15;1.50;;;0.90;;
20476;SDS011;10397;50.948;11.092;2024-03-02T07:15:46;2.10;;;0.70;;
20476;SDS011;10397;50.948;11.092;2024-03-02T07:18:32;2.57;;;0.87;;
20476;SDS011;10397;50.948;11.092;2024-03-02T07:21:03;1.77;;;0.60;;
20476;SDS011;10397;50.948;11.092;2024-03-02T07:23:34;2.45;;;2.00;;
20476;SDS011;10397;50.948;11.092;2024-03-02T07:26:05;1.55;;;1.45;;
20476;SDS011;10397;50.948;11.092;2024-03-02T07:28:37;4.00;;;1.12;;
20476;SDS011;10397;50.948;11.092;2024-03-02T07:31:07;2.37;;;1.10;;
20476;SDS011;10397;50.948;11.092;2024-03-02T07:33:39;1.93;;;1.17;;
20476;SDS011;10397;50.948;11.092;2024-03-02T07:36:10;1.20;;;1.03;;
20476;SDS011;10397;50.948;11.092;2024-03-02T07:38:41;1.17;;;0.93;;
20476;SDS011;10397;50.948;11.092;2024-03-02T07:41:12;2.37;;;1.05;;
20476;SDS011;10397;50.948;11.092;2024-03-02T07:43:44;1.20;;;0.62;;
20476;SDS011;10397;50.948;11.092;2024-03-02T07:46:14;1.07;;;0.98;;
20476;SDS011;10397;50.948;11.092;2024-03-02T07:48:46;1.52;;;1.40;;
20476;SDS011;10397;50.948;11.092;2024-03-02T07:51:17;1.57;;;1.20;;
20476;SDS011;10397;50.948;11.092;2024-03-02T07:53:49;2.22;;;1.45;;
20476;SDS011;10397;50.948;11.092;2024-03-02T07:56:20;1.37;;;0.70;;
20476;SDS011;10397;50.948;11.092;2024-03-02T07:58:51;2.02;;;1.10;;
20476;SDS011;10397;50.948;11.092;2024-03-02T08:01:23;0.98;;;0.78;;
20476;SDS011;10397;50.948;11.092;2024-03-02T08:03:54;1.85;;;1.05;;
20476;SDS011;10397;50.948;11.092;2024-03-02T08:06:26;1.73;;;1.00;;
20476;SDS011;10397;50.948;11.092;2024-03-02T08:08:59;1.40;;;1.00;;
20476;SDS011;10397;50.948;11.092;2024-03-02T08:11:29;1.00;;;0.73;;
20476;SDS011;10397;50.948;11.092;2024-03-02T08:14:00;0.78;;;0.75;;
20476;SDS011;10397;50.948;11.092;2024-03-02T08:16:31;1.20;;;1.10;;
20476;SDS011;10397;50.948;11.092;2024-03-02T08:19:03;1.42;;;0.90;;
20476;SDS011;10397;50.948;11.092;2024-03-02T08:21:34;1.85;;;0.80;;
20476;SDS011;10397;50.948;11.092;2024-03-02T08:24:04;2.27;;;1.10;;
20476;SDS011;10397;50.948;11.092;2024-03-02T08:26:35;1.43;;;1.10;;
20476;SDS011;10397;50.948;11.092;2024-03-02T08:29:06;0.80;;;0.70;;
20476;SDS011;10397;50.948;11.092;2024-03-02T08:31:38;3.05;;;1.12;;
20476;SDS011;10397;50.948;11.092;2024-03-02T08:34:09;2.23;;;0.90;;
20476;SDS011;10397;50.948;11.092;2024-03-02T08:36:41;2.23;;;1.30;;
20476;SDS011;10397;50.948;11.092;2024-03-02T08:39:11;1.80;;;0.90;;
20476;SDS011;10397;50.948;11.092;2024-03-02T08:41:45;1.70;;;1.07;;
20476;SDS011;10397;50.948;11.092;2024-03-02T08:44:16;1.37;;;0.95;;
20476;SDS011;10397;50.948;11.092;2024-03-02T08:46:47;0.80;;;0.53;;
20476;SDS011;10397;50.948;11.092;2024-03-02T08:49:18;1.20;;;0.78;;
20476;SDS011;10397;50.948;11.092;2024-03-02T08:51:50;1.87;;;0.57;;
20476;SDS011;10397;50.948;11.092;2024-03-02T08:54:24;1.43;;;0.70;;
20476;SDS011;10397;50.948;11.092;2024-03-02T08:56:56;1.02;;;0.70;;
20476;SDS011;10397;50.948;11.092;2024-03-02T08:59:27;0.78;;;0.42;;
20476;SDS011;10397;50.948;11.092;2024-03-02T09:01:58;1.47;;;0.85;;
20476;SDS011;10397;50.948;11.092;2024-03-02T09:04:29;1.83;;;1.00;;
20476;SDS011;10397;50.948;11.092;2024-03-02T09:07:00;0.55;;;0.30;;
20476;SDS011;10397;50.948;11.092;2024-03-02T09:09:31;1.20;;;0.40;;
20476;SDS011;10397;50.948;11.092;2024-03-02T09:12:02;1.53;;;0.60;;
20476;SDS011;10397;50.948;11.092;2024-03-02T09:14:33;0.88;;;0.70;;
20476;SDS011;10397;50.948;11.092;2024-03-02T09:17:04;1.82;;;0.95;;
20476;SDS011;10397;50.948;11.092;2024-03-02T09:19:35;1.17;;;1.00;;
20476;SDS011;10397;50.948;11.092;2024-03-02T09:22:06;1.12;;;0.60;;
20476;SDS011;10397;50.948;11.092;2024-03-02T09:24:37;1.40;;;0.80;;
20476;SDS011;10397;50.948;11.092;2024-03-02T09:27:08;2.15;;;0.75;;
20476;SDS011;10397;50.948;11.092;2024-03-02T09:29:39;0.95;;;0.50;;
20476;SDS011;10397;50.948;11.092;2024-03-02T09:32:14;1.42;;;0.55;;
20476;SDS011;10397;50.948;11.092;2024-03-02T09:34:45;2.00;;;0.50;;
20476;SDS011;10397;50.948;11.092;2024-03-02T09:37:16;2.17;;;0.90;;
20476;SDS011;10397;50.948;11.092;2024-03-02T09:39:47;1.62;;;0.82;;
20476;SDS011;10397;50.948;11.092;2024-03-02T09:42:18;1.20;;;0.40;;
20476;SDS011;10397;50.948;11.092;2024-03-02T09:44:49;1.40;;;1.10;;
20476;SDS011;10397;50.948;11.092;2024-03-02T09:47:21;0.80;;;0.80;;
20476;SDS011;10397;50.948;11.092;2024-03-02T09:49:52;2.45;;;1.00;;
20476;SDS011;10397;50.948;11.092;2024-03-02T09:52:24;1.42;;;0.88;;
20476;SDS011;10397;50.948;11.092;2024-03-02T09:54:55;0.70;;;0.68;;
20476;SDS011;10397;50.948;11.092;2024-03-02T09:57:27;0.80;;;0.50;;
20476;SDS011;10397;50.948;11.092;2024-03-02T09:59:59;1.10;;;0.72;;
20476;SDS011;10397;50.948;11.092;2024-03-02T10:02:30;2.65;;;1.45;;
20476;SDS011;10397;50.948;11.092;2024-03-02T10:05:02;1.20;;;1.00;;
20476;SDS011;10397;50.948;11.092;2024-03-02T10:07:33;1.20;;;1.00;;
20476;SDS011;10397;50.948;11.092;2024-03-02T10:10:13;3.27;;;0.98;;
20476;SDS011;10397;50.948;11.092;2024-03-02T10:12:44;0.67;;;0.47;;
20476;SDS011;10397;50.948;11.092;2024-03-02T10:15:15;1.00;;;0.50;;
20476;SDS011;10397;50.948;11.092;2024-03-02T10:17:46;1.20;;;0.60;;
20476;SDS011;10397;50.948;11.092;2024-03-02T10:20:21;1.20;;;0.78;;
20476;SDS011;10397;50.948;11.092;2024-03-02T10:22:51;0.93;;;0.47;;
20476;SDS011;10397;50.948;11.092;2024-03-02T10:25:32;1.62;;;0.70;;
20476;SDS011;10397;50.948;11.092;2024-03-02T10:28:02;0.80;;;0.60;;
20476;SDS011;10397;50.948;11.092;2024-03-02T10:30:33;0.90;;;0.60;;
20476;SDS011;10397;50.948;11.092;2024-03-02T10:33:03;1.20;;;0.50;;
20476;SDS011;10397;50.948;11.092;2024-03-02T10:35:34;1.07;;;0.72;;
20476;SDS011;10397;50.948;11.092;2024-03-02T10:38:05;1.52;;;0.60;;
20476;SDS011;10397;50.948;11.092;2024-03-02T10:40:37;2.62;;;1.10;;
20476;SDS011;10397;50.948;11.092;2024-03-02T10:43:09;0.45;;;0.37;;
20476;SDS011;10397;50.948;11.092;2024-03-02T10:45:40;1.77;;;0.88;;
20476;SDS011;10397;50.948;11.092;2024-03-02T10:48:11;2.10;;;0.82;;
20476;SDS011;10397;50.948;11.092;2024-03-02T10:50:43;1.30;;;0.88;;
20476;SDS011;10397;50.948;11.092;2024-03-02T10:53:14;1.57;;;0.50;;
20476;SDS011;10397;50.948;11.092;2024-03-02T10:55:45;1.15;;;0.57;;
20476;SDS011;10397;50.948;11.092;2024-03-02T10:58:16;1.05;;;0.68;;
20476;SDS011;10397;50.948;11.092;2024-03-02T11:00:47;0.40;;;0.30;;
20476;SDS011;10397;50.948;11.092;2024-03-02T11:03:18;0.78;;;0.40;;
20476;SDS011;10397;50.948;11.092;2024-03-02T11:05:50;1.25;;;0.72;;
20476;SDS011;10397;50.948;11.092;2024-03-02T11:08:20;3.77;;;0.93;;
20476;SDS011;10397;50.948;11.092;2024-03-02T11:10:54;2.72;;;0.80;;
20476;SDS011;10397;50.948;11.092;2024-03-02T11:13:26;0.95;;;0.40;;
20476;SDS011;10397;50.948;11.092;2024-03-02T11:16:03;1.90;;;0.40;;
20476;SDS011;10397;50.948;11.092;2024-03-02T11:18:33;1.05;;;0.33;;
20476;SDS011;10397;50.948;11.092;2024-03-02T11:21:04;0.53;;;0.30;;
20476;SDS011;10397;50.948;11.092;2024-03-02T11:23:36;1.52;;;0.55;;
20476;SDS011;10397;50.948;11.092;2024-03-02T11:26:20;3.33;;;1.12;;
20476;SDS011;10397;50.948;11.092;2024-03-02T11:28:53;1.10;;;0.70;;
20476;SDS011;10397;50.948;11.092;2024-03-02T11:31:47;0.82;;;0.50;;
20476;SDS011;10397;50.948;11.092;2024-03-02T11:33:56;1.00;;;0.47;;
20476;SDS011;10397;50.948;11.092;2024-03-02T11:36:27;3.13;;;0.90;;
20476;SDS011;10397;50.948;11.092;2024-03-02T11:38:58;1.80;;;0.70;;
20476;SDS011;10397;50.948;11.092;2024-03-02T11:41:29;1.25;;;0.68;;
20476;SDS011;10397;50.948;11.092;2024-03-02T11:44:00;1.20;;;0.70;;
20476;SDS011;10397;50.948;11.092;2024-03-02T11:46:31;0.75;;;0.30;;
20476;SDS011;10397;50.948;11.092;2024-03-02T11:49:03;3.22;;;0.75;;
20476;SDS011;10397;50.948;11.092;2024-03-02T11:51:34;0.40;;;0.20;;
20476;SDS011;10397;50.948;11.092;2024-03-02T11:54:06;0.80;;;0.45;;
20476;SDS011;10397;50.948;11.092;2024-03-02T11:56:37;0.62;;;0.50;;
20476;SDS011;10397;50.948;11.092;2024-03-02T11:59:09;1.32;;;0.68;;
20476;SDS011;10397;50.948;11.092;2024-03-02T12:01:40;1.00;;;0.60;;
20476;SDS011;10397;50.948;11.092;2024-03-02T12:04:12;1.20;;;0.50;;
20476;SDS011;10397;50.948;11.092;2024-03-02T12:06:43;0.78;;;0.60;;
20476;SDS011;10397;50.948;11.092;2024-03-02T12:09:13;0.50;;;0.40;;
20476;SDS011;10397;50.948;11.092;2024-03-02T12:11:45;0.70;;;0.30;;
20476;SDS011;10397;50.948;11.092;2024-03-02T12:14:17;0.62;;;0.35;;
20476;SDS011;10397;50.948;11.092;2024-03-02T12:16:48;1.90;;;0.70;;
20476;SDS011;10397;50.948;11.092;2024-03-02T12:19:20;0.95;;;0.50;;
20476;SDS011;10397;50.948;11.092;2024-03-02T12:21:52;0.72;;;0.50;;
20476;SDS011;10397;50.948;11.092;2024-03-02T12:24:23;0.70;;;0.33;;
20476;SDS011;10397;50.948;11.092;2024-03-02T12:26:54;0.95;;;0.30;;
20476;SDS011;10397;50.948;11.092;2024-03-02T12:29:25;0.28;;;0.13;;
20476;SDS011;10397;50.948;11.092;2024-03-02T12:31:56;0.88;;;0.40;;
20476;SDS011;10397;50.948;11.092;2024-03-02T12:34:27;0.60;;;0.30;;
20476;SDS011;10397;50.948;11.092;2024-03-02T12:36:59;0.57;;;0.42;;
20476;SDS011;10397;50.948;11.092;2024-03-02T12:39:30;0.75;;;0.65;;
20476;SDS011;10397;50.948;11.092;2024-03-02T12:42:02;0.95;;;0.37;;
20476;SDS011;10397;50.948;11.092;2024-03-02T12:44:33;0.50;;;0.37;;
20476;SDS011;10397;50.948;11.092;2024-03-02T12:47:05;0.85;;;0.40;;
20476;SDS011;10397;50.948;11.092;2024-03-02T12:49:36;1.10;;;0.23;;
20476;SDS011;10397;50.948;11.092;2024-03-02T12:52:07;0.82;;;0.40;;
20476;SDS011;10397;50.948;11.092;2024-03-02T12:54:39;1.87;;;1.05;;
20476;SDS011;10397;50.948;11.092;2024-03-02T12:57:10;1.40;;;0.70;;
20476;SDS011;10397;50.948;11.092;2024-03-02T12:59:44;1.27;;;0.60;;
20476;SDS011;10397;50.948;11.092;2024-03-02T13:02:18;1.05;;;0.70;;
20476;SDS011;10397;50.948;11.092;2024-03-02T13:04:55;1.10;;;0.50;;
20476;SDS011;10397;50.948;11.092;2024-03-02T13:07:23;0.60;;;0.30;;
20476;SDS011;10397;50.948;11.092;2024-03-02T13:09:53;0.68;;;0.40;;
20476;SDS011;10397;50.948;11.092;2024-03-02T13:12:24;1.70;;;0.60;;
20476;SDS011;10397;50.948;11.092;2024-03-02T13:14:55;1.85;;;0.85;;
20476;SDS011;10397;50.948;11.092;2024-03-02T13:17:26;1.12;;;0.68;;
20476;SDS011;10397;50.948;11.092;2024-03-02T13:19:58;1.82;;;0.57;;
20476;SDS011;10397;50.948;11.092;2024-03-02T13:22:28;1.27;;;0.80;;
20476;SDS011;10397;50.948;11.092;2024-03-02T13:25:00;0.90;;;0.40;;
20476;SDS011;10397;50.948;11.092;2024-03-02T13:27:34;1.10;;;0.57;;
20476;SDS011;10397;50.948;11.092;2024-03-02T13:30:06;3.47;;;0.60;;
20476;SDS011;10397;50.948;11.092;2024-03-02T13:32:39;1.23;;;0.40;;
20476;SDS011;10397;50.948;11.092;2024-03-02T13:35:10;3.37;;;0.50;;
20476;SDS011;10397;50.948;11.092;2024-03-02T13:37:42;0.27;;;0.17;;
20476;SDS011;10397;50.948;11.092;2024-03-02T13:40:13;1.17;;;0.93;;
20476;SDS011;10397;50.948;11.092;2024-03-02T13:42:44;1.57;;;0.57;;
20476;SDS011;10397;50.948;11.092;2024-03-02T13:45:15;1.53;;;0.97;;
20476;SDS011;10397;50.948;11.092;2024-03-02T13:47:46;1.35;;;0.72;;
20476;SDS011;10397;50.948;11.092;2024-03-02T13:50:18;0.95;;;0.50;;
20476;SDS011;10397;50.948;11.092;2024-03-02T13:52:49;1.45;;;0.57;;
20476;SDS011;10397;50.948;11.092;2024-03-02T13:55:21;0.95;;;0.20;;
20476;SDS011;10397;50.948;11.092;2024-03-02T13:57:52;2.00;;;0.57;;
20476;SDS011;10397;50.948;11.092;2024-03-02T14:00:23;1.00;;;0.60;;
20476;SDS011;10397;50.948;11.092;2024-03-02T14:02:54;0.55;;;0.40;;
20476;SDS011;10397;50.948;11.092;2024-03-02T14:05:25;0.60;;;0.37;;
20476;SDS011;10397;50.948;11.092;2024-03-02T14:07:56;0.50;;;0.30;;
20476;SDS011;10397;50.948;11.092;2024-03-02T14:10:30;0.97;;;0.57;;
20476;SDS011;10397;50.948;11.092;2024-03-02T14:13:01;3.45;;;1.12;;
20476;SDS011;10397;50.948;11.092;2024-03-02T14:15:32;1.70;;;0.45;;
20476;SDS011;10397;50.948;11.092;2024-03-02T14:18:05;0.68;;;0.40;;
20476;SDS011;10397;50.948;11.092;2024-03-02T14:20:35;0.67;;;0.40;;
20476;SDS011;10397;50.948;11.092;2024-03-02T14:23:06;1.37;;;0.42;;
20476;SDS011;10397;50.948;11.092;2024-03-02T14:25:37;1.10;;;0.47;;
20476;SDS011;10397;50.948;11.092;2024-03-02T14:28:09;0.60;;;0.30;;
20476;SDS011;10397;50.948;11.092;2024-03-02T14:30:40;0.78;;;0.50;;
20476;SDS011;10397;50.948;11.092;2024-03-02T14:33:12;0.82;;;0.23;;
20476;SDS011;10397;50.948;11.092;2024-03-02T14:35:44;0.98;;;0.20;;
20476;SDS011;10397;50.948;11.092;2024-03-02T14:38:14;0.73;;;0.20;;
20476;SDS011;10397;50.948;11.092;2024-03-02T14:40:45;0.65;;;0.35;;
20476;SDS011;10397;50.948;11.092;2024-03-02T14:43:16;0.20;;;0.10;;
20476;SDS011;10397;50.948;11.092;2024-03-02T14:45:47;0.30;;;0.10;;
20476;SDS011;10397;50.948;11.092;2024-03-02T14:48:19;0.78;;;0.28;;
20476;SDS011;10397;50.948;11.092;2024-03-02T14:50:50;0.10;;;0.00;;
20476;SDS011;10397;50.948;11.092;2024-03-02T14:53:21;0.30;;;0.10;;
20476;SDS011;10397;50.948;11.092;2024-03-02T14:55:53;0.10;;;0.10;;
20476;SDS011;10397;50.948;11.092;2024-03-02T14:58:24;0.82;;;0.23;;